sensor_id;sensor_type;location;lat;lon;timestamp;P1;durP1;ratioP1;P2;durP2;ratioP2
6113;SDS011;3087;48.392;10.836;2023-03-12T00:01:58;14.70;;;7.93;;
6113;SDS011;3087;48.392;10.836;2023-03-12T00:04:24;12.90;;;8.23;;
6113;SDS011;3087;48.392;10.836;2023-03-12T00:06:50;11.97;;;8.10;;
6113;SDS011;3087;48.392;10.836;2023-03-12T00:09:16;11.77;;;8.10;;
6113;SDS011;3087;48.392;10.836;2023-03-12T00:11:41;11.20;;;7.53;;
6113;SDS011;3087;48.392;10.836;2023-03-12T00:14:07;12.90;;;8.43;;
6113;SDS011;3087;48.392;10.836;2023-03-12T00:16:32;14.33;;;9.07;;
6113;SDS011;3087;48.392;10.836;2023-03-12T00:18:58;14.87;;;9.73;;
6113;SDS011;3087;48.392;10.836;2023-03-12T00:21:24;18.17;;;10.03;;
6113;SDS011;3087;48.392;10.836;2023-03-12T00:23:50;19.37;;;10.80;;
6113;SDS011;3087;48.392;10.836;2023-03-12T00:26:16;17.40;;;10.17;;
6113;SDS011;3087;48.392;10.836;2023-03-12T00:28:43;18.87;;;10.60;;
6113;SDS011;3087;48.392;10.836;2023-03-12T00:31:16;15.67;;;9.13;;
6113;SDS011;3087;48.392;10.836;2023-03-12T00:33:45;13.87;;;9.03;;
6113;SDS011;3087;48.392;10.836;2023-03-12T00:36:13;13.33;;;8.67;;
6113;SDS011;3087;48.392;10.836;2023-03-12T00:38:39;14.20;;;8.73;;
6113;SDS011;3087;48.392;10.836;2023-03-12T00:41:05;14.60;;;9.13;;
6113;SDS011;3087;48.392;10.836;2023-03-12T00:43:31;12.77;;;8.20;;
6113;SDS011;3087;48.392;10.836;2023-03-12T00:45:58;11.53;;;8.20;;
6113;SDS011;3087;48.392;10.836;2023-03-12T00:48:24;11.63;;;7.27;;
6113;SDS011;3087;48.392;10.836;2023-03-12T00:50:50;14.73;;;8.57;;
6113;SDS011;3087;48.392;10.836;2023-03-12T00:53:15;10.83;;;7.53;;
6113;SDS011;3087;48.392;10.836;2023-03-12T00:55:41;9.53;;;7.60;;
6113;SDS011;3087;48.392;10.836;2023-03-12T00:58:06;11.00;;;8.43;;
6113;SDS011;3087;48.392;10.836;2023-03-12T01:00:32;13.03;;;8.40;;
6113;SDS011;3087;48.392;10.836;2023-03-12T01:02:58;14.20;;;7.90;;
6113;SDS011;3087;48.392;10.836;2023-03-12T01:05:23;12.93;;;8.27;;
6113;SDS011;3087;48.392;10.836;2023-03-12T01:07:49;11.50;;;7.30;;
6113;SDS011;3087;48.392;10.836;2023-03-12T01:10:15;11.47;;;7.40;;
6113;SDS011;3087;48.392;10.836;2023-03-12T01:12:43;11.03;;;7.03;;
6113;SDS011;3087;48.392;10.836;2023-03-12T01:15:10;11.27;;;7.57;;
6113;SDS011;3087;48.392;10.836;2023-03-12T01:17:38;11.07;;;7.30;;
6113;SDS011;3087;48.392;10.836;2023-03-12T01:20:04;11.27;;;7.60;;
6113;SDS011;3087;48.392;10.836;2023-03-12T01:22:30;11.97;;;7.53;;
6113;SDS011;3087;48.392;10.836;2023-03-12T01:24:56;11.83;;;7.27;;
6113;SDS011;3087;48.392;10.836;2023-03-12T01:27:21;10.53;;;7.70;;
6113;SDS011;3087;48.392;10.836;2023-03-12T01:29:47;9.93;;;7.57;;
6113;SDS011;3087;48.392;10.836;2023-03-12T01:32:12;11.20;;;7.47;;
6113;SDS011;3087;48.392;10.836;2023-03-12T01:34:38;11.63;;;7.53;;
6113;SDS011;3087;48.392;10.836;2023-03-12T01:37:04;11.73;;;7.87;;
6113;SDS011;3087;48.392;10.836;2023-03-12T01:39:31;9.43;;;7.43;;
6113;SDS011;3087;48.392;10.836;2023-03-12T01:41:56;11.23;;;7.60;;
6113;SDS011;3087;48.392;10.836;2023-03-12T01:44:22;11.23;;;7.63;;
6113;SDS011;3087;48.392;10.836;2023-03-12T01:46:47;12.97;;;7.90;;
6113;SDS011;3087;48.392;10.836;2023-03-12T01:49:22;11.93;;;8.10;;
6113;SDS011;3087;48.392;10.836;2023-03-12T01:52:01;9.27;;;7.07;;
6113;SDS011;3087;48.392;10.836;2023-03-12T01:56:55;9.37;;;6.83;;
6113;SDS011;3087;48.392;10.836;2023-03-12T01:59:22;9.03;;;7.07;;
6113;SDS011;3087;48.392;10.836;2023-03-12T02:01:52;8.87;;;6.60;;
6113;SDS011;3087;48.392;10.836;2023-03-12T02:04:18;10.67;;;6.20;;
6113;SDS011;3087;48.392;10.836;2023-03-12T02:07:04;9.77;;;6.57;;
6113;SDS011;3087;48.392;10.836;2023-03-12T02:09:34;9.33;;;6.30;;
6113;SDS011;3087;48.392;10.836;2023-03-12T02:12:03;8.93;;;6.50;;
6113;SDS011;3087;48.392;10.836;2023-03-12T02:14:29;10.37;;;6.43;;
6113;SDS011;3087;48.392;10.836;2023-03-12T02:16:55;7.83;;;5.97;;
6113;SDS011;3087;48.392;10.836;2023-03-12T02:22:09;9.50;;;6.07;;
6113;SDS011;3087;48.392;10.836;2023-03-12T02:24:38;8.50;;;6.27;;
6113;SDS011;3087;48.392;10.836;2023-03-12T02:27:12;8.33;;;5.77;;
6113;SDS011;3087;48.392;10.836;2023-03-12T02:29:39;8.33;;;5.63;;
6113;SDS011;3087;48.392;10.836;2023-03-12T02:32:08;9.17;;;5.77;;
6113;SDS011;3087;48.392;10.836;2023-03-12T02:34:50;11.43;;;6.20;;
6113;SDS011;3087;48.392;10.836;2023-03-12T02:37:16;7.03;;;6.33;;
6113;SDS011;3087;48.392;10.836;2023-03-12T02:39:43;6.37;;;5.77;;
6113;SDS011;3087;48.392;10.836;2023-03-12T02:42:15;9.97;;;5.47;;
6113;SDS011;3087;48.392;10.836;2023-03-12T02:44:41;9.03;;;5.27;;
6113;SDS011;3087;48.392;10.836;2023-03-12T02:47:07;7.67;;;4.80;;
6113;SDS011;3087;48.392;10.836;2023-03-12T02:49:33;7.40;;;4.80;;
6113;SDS011;3087;48.392;10.836;2023-03-12T02:51:59;7.23;;;4.70;;
6113;SDS011;3087;48.392;10.836;2023-03-12T02:54:26;5.90;;;4.70;;
6113;SDS011;3087;48.392;10.836;2023-03-12T02:56:52;7.27;;;5.13;;
6113;SDS011;3087;48.392;10.836;2023-03-12T02:59:18;5.80;;;4.33;;
6113;SDS011;3087;48.392;10.836;2023-03-12T03:01:45;6.40;;;4.77;;
6113;SDS011;3087;48.392;10.836;2023-03-12T03:04:12;4.87;;;4.30;;
6113;SDS011;3087;48.392;10.836;2023-03-12T03:06:41;8.33;;;5.37;;
6113;SDS011;3087;48.392;10.836;2023-03-12T03:09:08;6.93;;;4.80;;
6113;SDS011;3087;48.392;10.836;2023-03-12T03:11:34;6.20;;;4.57;;
6113;SDS011;3087;48.392;10.836;2023-03-12T03:13:59;6.10;;;4.50;;
6113;SDS011;3087;48.392;10.836;2023-03-12T03:16:27;9.53;;;4.67;;
6113;SDS011;3087;48.392;10.836;2023-03-12T03:18:52;6.93;;;4.87;;
6113;SDS011;3087;48.392;10.836;2023-03-12T03:21:18;7.20;;;4.77;;
6113;SDS011;3087;48.392;10.836;2023-03-12T03:23:44;7.37;;;4.53;;
6113;SDS011;3087;48.392;10.836;2023-03-12T03:26:13;6.43;;;4.87;;
6113;SDS011;3087;48.392;10.836;2023-03-12T03:28:39;5.80;;;4.57;;
6113;SDS011;3087;48.392;10.836;2023-03-12T03:31:05;5.50;;;4.23;;
6113;SDS011;3087;48.392;10.836;2023-03-12T03:33:32;6.50;;;4.50;;
6113;SDS011;3087;48.392;10.836;2023-03-12T03:36:00;5.10;;;3.97;;
6113;SDS011;3087;48.392;10.836;2023-03-12T03:38:26;6.43;;;4.60;;
6113;SDS011;3087;48.392;10.836;2023-03-12T03:40:52;5.07;;;4.37;;
6113;SDS011;3087;48.392;10.836;2023-03-12T03:43:18;5.60;;;4.47;;
6113;SDS011;3087;48.392;10.836;2023-03-12T03:45:44;6.03;;;4.73;;
6113;SDS011;3087;48.392;10.836;2023-03-12T03:48:10;8.07;;;4.80;;
6113;SDS011;3087;48.392;10.836;2023-03-12T03:50:37;5.70;;;4.50;;
6113;SDS011;3087;48.392;10.836;2023-03-12T03:53:04;6.87;;;5.00;;
6113;SDS011;3087;48.392;10.836;2023-03-12T03:55:35;5.10;;;4.60;;
6113;SDS011;3087;48.392;10.836;2023-03-12T03:58:01;5.53;;;4.23;;
6113;SDS011;3087;48.392;10.836;2023-03-12T04:00:27;5.43;;;4.70;;
6113;SDS011;3087;48.392;10.836;2023-03-12T04:02:52;7.33;;;4.60;;
6113;SDS011;3087;48.392;10.836;2023-03-12T04:05:19;4.90;;;4.40;;
6113;SDS011;3087;48.392;10.836;2023-03-12T04:07:54;7.10;;;4.63;;
6113;SDS011;3087;48.392;10.836;2023-03-12T04:10:20;5.43;;;4.60;;
6113;SDS011;3087;48.392;10.836;2023-03-12T04:12:47;9.23;;;4.77;;
6113;SDS011;3087;48.392;10.836;2023-03-12T04:15:12;6.87;;;4.87;;
6113;SDS011;3087;48.392;10.836;2023-03-12T04:17:38;8.87;;;5.93;;
6113;SDS011;3087;48.392;10.836;2023-03-12T04:20:04;7.67;;;5.73;;
6113;SDS011;3087;48.392;10.836;2023-03-12T04:22:34;8.27;;;6.20;;
6113;SDS011;3087;48.392;10.836;2023-03-12T04:25:00;7.57;;;6.47;;
6113;SDS011;3087;48.392;10.836;2023-03-12T04:27:26;7.50;;;6.20;;
6113;SDS011;3087;48.392;10.836;2023-03-12T04:29:52;7.57;;;6.27;;
6113;SDS011;3087;48.392;10.836;2023-03-12T04:32:17;8.07;;;6.00;;
6113;SDS011;3087;48.392;10.836;2023-03-12T04:34:43;7.37;;;6.50;;
6113;SDS011;3087;48.392;10.836;2023-03-12T04:37:09;7.97;;;7.17;;
6113;SDS011;3087;48.392;10.836;2023-03-12T04:39:37;7.73;;;6.50;;
6113;SDS011;3087;48.392;10.836;2023-03-12T04:42:04;8.30;;;6.57;;
6113;SDS011;3087;48.392;10.836;2023-03-12T04:44:30;9.10;;;6.27;;
6113;SDS011;3087;48.392;10.836;2023-03-12T04:46:56;6.50;;;5.77;;
6113;SDS011;3087;48.392;10.836;2023-03-12T04:49:22;7.80;;;6.37;;
6113;SDS011;3087;48.392;10.836;2023-03-12T04:51:47;7.53;;;6.20;;
6113;SDS011;3087;48.392;10.836;2023-03-12T04:54:13;7.87;;;6.63;;
6113;SDS011;3087;48.392;10.836;2023-03-12T04:56:38;7.20;;;6.17;;
6113;SDS011;3087;48.392;10.836;2023-03-12T04:59:04;7.97;;;6.73;;
6113;SDS011;3087;48.392;10.836;2023-03-12T05:01:31;7.47;;;6.00;;
6113;SDS011;3087;48.392;10.836;2023-03-12T05:03:57;7.13;;;6.43;;
6113;SDS011;3087;48.392;10.836;2023-03-12T05:06:23;7.20;;;6.40;;
6113;SDS011;3087;48.392;10.836;2023-03-12T05:08:50;7.70;;;6.67;;
6113;SDS011;3087;48.392;10.836;2023-03-12T05:11:16;7.77;;;6.00;;
6113;SDS011;3087;48.392;10.836;2023-03-12T05:13:43;7.60;;;6.60;;
6113;SDS011;3087;48.392;10.836;2023-03-12T05:16:09;7.83;;;5.87;;
6113;SDS011;3087;48.392;10.836;2023-03-12T05:18:35;8.53;;;6.73;;
6113;SDS011;3087;48.392;10.836;2023-03-12T05:21:03;8.40;;;6.23;;
6113;SDS011;3087;48.392;10.836;2023-03-12T05:23:33;6.80;;;6.10;;
6113;SDS011;3087;48.392;10.836;2023-03-12T05:25:59;8.43;;;6.27;;
6113;SDS011;3087;48.392;10.836;2023-03-12T05:28:25;7.57;;;6.23;;
6113;SDS011;3087;48.392;10.836;2023-03-12T05:30:55;10.33;;;6.40;;
6113;SDS011;3087;48.392;10.836;2023-03-12T05:33:23;9.37;;;6.67;;
6113;SDS011;3087;48.392;10.836;2023-03-12T05:35:50;7.37;;;6.57;;
6113;SDS011;3087;48.392;10.836;2023-03-12T05:38:15;8.47;;;6.50;;
6113;SDS011;3087;48.392;10.836;2023-03-12T05:40:41;8.80;;;6.93;;
6113;SDS011;3087;48.392;10.836;2023-03-12T05:43:07;7.97;;;6.80;;
6113;SDS011;3087;48.392;10.836;2023-03-12T05:45:33;9.40;;;7.00;;
6113;SDS011;3087;48.392;10.836;2023-03-12T05:47:58;9.30;;;7.43;;
6113;SDS011;3087;48.392;10.836;2023-03-12T05:50:24;10.73;;;7.40;;
6113;SDS011;3087;48.392;10.836;2023-03-12T05:52:50;9.97;;;7.37;;
6113;SDS011;3087;48.392;10.836;2023-03-12T05:55:16;10.60;;;8.60;;
6113;SDS011;3087;48.392;10.836;2023-03-12T05:57:42;9.07;;;8.00;;
6113;SDS011;3087;48.392;10.836;2023-03-12T06:00:08;11.73;;;9.27;;
6113;SDS011;3087;48.392;10.836;2023-03-12T06:02:36;12.77;;;9.63;;
6113;SDS011;3087;48.392;10.836;2023-03-12T06:05:02;14.23;;;9.87;;
6113;SDS011;3087;48.392;10.836;2023-03-12T06:07:27;10.73;;;9.27;;
6113;SDS011;3087;48.392;10.836;2023-03-12T06:09:53;11.97;;;8.90;;
6113;SDS011;3087;48.392;10.836;2023-03-12T06:12:18;10.63;;;8.53;;
6113;SDS011;3087;48.392;10.836;2023-03-12T06:14:45;10.27;;;9.17;;
6113;SDS011;3087;48.392;10.836;2023-03-12T06:17:10;10.77;;;8.80;;
6113;SDS011;3087;48.392;10.836;2023-03-12T06:19:36;11.47;;;8.57;;
6113;SDS011;3087;48.392;10.836;2023-03-12T06:22:02;10.57;;;8.67;;
6113;SDS011;3087;48.392;10.836;2023-03-12T06:24:28;12.93;;;10.23;;
6113;SDS011;3087;48.392;10.836;2023-03-12T06:26:53;9.60;;;8.53;;
6113;SDS011;3087;48.392;10.836;2023-03-12T06:29:19;11.87;;;8.20;;
6113;SDS011;3087;48.392;10.836;2023-03-12T06:31:45;10.27;;;8.30;;
6113;SDS011;3087;48.392;10.836;2023-03-12T06:34:12;9.57;;;7.60;;
6113;SDS011;3087;48.392;10.836;2023-03-12T06:36:38;9.07;;;8.10;;
6113;SDS011;3087;48.392;10.836;2023-03-12T06:39:03;12.03;;;8.77;;
6113;SDS011;3087;48.392;10.836;2023-03-12T06:41:30;11.10;;;8.43;;
6113;SDS011;3087;48.392;10.836;2023-03-12T06:43:56;9.43;;;8.30;;
6113;SDS011;3087;48.392;10.836;2023-03-12T06:46:23;10.30;;;8.87;;
6113;SDS011;3087;48.392;10.836;2023-03-12T06:48:49;17.03;;;9.83;;
6113;SDS011;3087;48.392;10.836;2023-03-12T06:51:15;11.03;;;9.47;;
6113;SDS011;3087;48.392;10.836;2023-03-12T06:53:41;10.67;;;9.10;;
6113;SDS011;3087;48.392;10.836;2023-03-12T06:56:07;11.07;;;8.77;;
6113;SDS011;3087;48.392;10.836;2023-03-12T06:58:34;9.97;;;8.40;;
6113;SDS011;3087;48.392;10.836;2023-03-12T07:00:59;13.80;;;9.53;;
6113;SDS011;3087;48.392;10.836;2023-03-12T07:03:25;13.50;;;10.37;;
6113;SDS011;3087;48.392;10.836;2023-03-12T07:05:51;15.37;;;9.33;;
6113;SDS011;3087;48.392;10.836;2023-03-12T07:08:16;12.60;;;10.43;;
6113;SDS011;3087;48.392;10.836;2023-03-12T07:10:43;11.40;;;9.77;;
6113;SDS011;3087;48.392;10.836;2023-03-12T07:13:09;11.93;;;10.30;;
6113;SDS011;3087;48.392;10.836;2023-03-12T07:15:35;12.20;;;9.87;;
6113;SDS011;3087;48.392;10.836;2023-03-12T07:18:04;13.47;;;10.80;;
6113;SDS011;3087;48.392;10.836;2023-03-12T07:20:32;15.60;;;11.40;;
6113;SDS011;3087;48.392;10.836;2023-03-12T07:23:01;11.60;;;9.70;;
6113;SDS011;3087;48.392;10.836;2023-03-12T07:25:27;12.27;;;10.23;;
6113;SDS011;3087;48.392;10.836;2023-03-12T07:27:53;10.70;;;9.60;;
6113;SDS011;3087;48.392;10.836;2023-03-12T07:30:18;12.30;;;10.10;;
6113;SDS011;3087;48.392;10.836;2023-03-12T07:32:44;12.20;;;10.40;;
6113;SDS011;3087;48.392;10.836;2023-03-12T07:35:10;13.50;;;9.77;;
6113;SDS011;3087;48.392;10.836;2023-03-12T07:37:35;14.27;;;10.93;;
6113;SDS011;3087;48.392;10.836;2023-03-12T07:40:01;13.70;;;10.77;;
6113;SDS011;3087;48.392;10.836;2023-03-12T07:42:31;13.10;;;9.50;;
6113;SDS011;3087;48.392;10.836;2023-03-12T07:44:57;14.27;;;10.73;;
6113;SDS011;3087;48.392;10.836;2023-03-12T07:47:23;11.53;;;10.13;;
6113;SDS011;3087;48.392;10.836;2023-03-12T07:49:48;10.73;;;9.10;;
6113;SDS011;3087;48.392;10.836;2023-03-12T07:52:14;11.33;;;9.07;;
6113;SDS011;3087;48.392;10.836;2023-03-12T07:54:41;10.57;;;9.17;;
6113;SDS011;3087;48.392;10.836;2023-03-12T07:57:07;12.50;;;9.43;;
6113;SDS011;3087;48.392;10.836;2023-03-12T07:59:33;10.67;;;8.00;;
6113;SDS011;3087;48.392;10.836;2023-03-12T08:01:58;10.70;;;9.37;;
6113;SDS011;3087;48.392;10.836;2023-03-12T08:04:24;10.30;;;9.10;;
6113;SDS011;3087;48.392;10.836;2023-03-12T08:06:50;10.70;;;9.00;;
6113;SDS011;3087;48.392;10.836;2023-03-12T08:09:15;10.23;;;8.53;;
6113;SDS011;3087;48.392;10.836;2023-03-12T08:11:41;9.13;;;8.13;;
6113;SDS011;3087;48.392;10.836;2023-03-12T08:14:06;9.43;;;8.27;;
6113;SDS011;3087;48.392;10.836;2023-03-12T08:16:32;12.47;;;9.57;;
6113;SDS011;3087;48.392;10.836;2023-03-12T08:18:58;10.30;;;9.20;;
6113;SDS011;3087;48.392;10.836;2023-03-12T08:21:23;10.03;;;8.37;;
6113;SDS011;3087;48.392;10.836;2023-03-12T08:23:52;12.00;;;9.83;;
6113;SDS011;3087;48.392;10.836;2023-03-12T08:26:17;11.53;;;9.50;;
6113;SDS011;3087;48.392;10.836;2023-03-12T08:28:43;11.40;;;9.50;;
6113;SDS011;3087;48.392;10.836;2023-03-12T08:31:09;11.43;;;9.63;;
6113;SDS011;3087;48.392;10.836;2023-03-12T08:33:35;11.87;;;9.57;;
6113;SDS011;3087;48.392;10.836;2023-03-12T08:36:00;9.80;;;8.30;;
6113;SDS011;3087;48.392;10.836;2023-03-12T08:38:26;12.90;;;9.80;;
6113;SDS011;3087;48.392;10.836;2023-03-12T08:40:56;10.50;;;8.27;;
6113;SDS011;3087;48.392;10.836;2023-03-12T08:43:22;8.80;;;7.87;;
6113;SDS011;3087;48.392;10.836;2023-03-12T08:45:55;10.97;;;9.50;;
6113;SDS011;3087;48.392;10.836;2023-03-12T08:48:26;12.73;;;9.30;;
6113;SDS011;3087;48.392;10.836;2023-03-12T08:50:54;11.37;;;9.53;;
6113;SDS011;3087;48.392;10.836;2023-03-12T08:53:20;10.97;;;8.60;;
6113;SDS011;3087;48.392;10.836;2023-03-12T08:55:46;12.83;;;9.00;;
6113;SDS011;3087;48.392;10.836;2023-03-12T08:58:12;10.20;;;8.73;;
6113;SDS011;3087;48.392;10.836;2023-03-12T09:00:38;9.43;;;7.80;;
6113;SDS011;3087;48.392;10.836;2023-03-12T09:03:04;8.80;;;7.73;;
6113;SDS011;3087;48.392;10.836;2023-03-12T09:05:29;8.93;;;7.80;;
6113;SDS011;3087;48.392;10.836;2023-03-12T09:07:55;11.83;;;8.10;;
6113;SDS011;3087;48.392;10.836;2023-03-12T09:10:21;9.10;;;7.43;;
6113;SDS011;3087;48.392;10.836;2023-03-12T09:12:47;9.60;;;7.87;;
6113;SDS011;3087;48.392;10.836;2023-03-12T09:15:13;8.70;;;7.43;;
6113;SDS011;3087;48.392;10.836;2023-03-12T09:17:39;9.63;;;8.63;;
6113;SDS011;3087;48.392;10.836;2023-03-12T09:20:05;8.70;;;7.50;;
6113;SDS011;3087;48.392;10.836;2023-03-12T09:22:33;8.97;;;8.07;;
6113;SDS011;3087;48.392;10.836;2023-03-12T09:25:02;6.87;;;6.13;;
6113;SDS011;3087;48.392;10.836;2023-03-12T09:27:29;9.07;;;7.00;;
6113;SDS011;3087;48.392;10.836;2023-03-12T09:29:54;8.17;;;6.53;;
6113;SDS011;3087;48.392;10.836;2023-03-12T09:32:20;7.57;;;6.77;;
6113;SDS011;3087;48.392;10.836;2023-03-12T09:34:45;8.07;;;6.63;;
6113;SDS011;3087;48.392;10.836;2023-03-12T09:37:11;7.97;;;6.63;;
6113;SDS011;3087;48.392;10.836;2023-03-12T09:39:37;7.67;;;6.33;;
6113;SDS011;3087;48.392;10.836;2023-03-12T09:42:03;7.10;;;6.23;;
6113;SDS011;3087;48.392;10.836;2023-03-12T09:44:38;8.37;;;6.70;;
6113;SDS011;3087;48.392;10.836;2023-03-12T09:47:16;7.87;;;6.20;;
6113;SDS011;3087;48.392;10.836;2023-03-12T09:49:58;7.73;;;6.93;;
6113;SDS011;3087;48.392;10.836;2023-03-12T09:52:47;8.63;;;6.87;;
6113;SDS011;3087;48.392;10.836;2023-03-12T09:55:31;7.27;;;6.10;;
6113;SDS011;3087;48.392;10.836;2023-03-12T09:58:01;8.87;;;6.33;;
6113;SDS011;3087;48.392;10.836;2023-03-12T10:00:28;14.10;;;7.97;;
6113;SDS011;3087;48.392;10.836;2023-03-12T10:03:06;14.43;;;11.00;;
6113;SDS011;3087;48.392;10.836;2023-03-12T10:05:38;15.90;;;11.70;;
6113;SDS011;3087;48.392;10.836;2023-03-12T10:10:45;7.20;;;6.50;;
6113;SDS011;3087;48.392;10.836;2023-03-12T10:18:54;6.10;;;5.50;;
6113;SDS011;3087;48.392;10.836;2023-03-12T10:21:44;5.77;;;5.10;;
6113;SDS011;3087;48.392;10.836;2023-03-12T10:27:00;6.20;;;5.60;;
6113;SDS011;3087;48.392;10.836;2023-03-12T10:37:03;5.20;;;4.70;;
6113;SDS011;3087;48.392;10.836;2023-03-12T10:39:42;6.73;;;5.17;;
6113;SDS011;3087;48.392;10.836;2023-03-12T10:42:27;7.10;;;5.30;;
6113;SDS011;3087;48.392;10.836;2023-03-12T10:45:12;5.80;;;5.30;;
6113;SDS011;3087;48.392;10.836;2023-03-12T10:47:43;5.90;;;5.40;;
6113;SDS011;3087;48.392;10.836;2023-03-12T10:50:23;7.07;;;5.50;;
6113;SDS011;3087;48.392;10.836;2023-03-12T10:56:28;5.33;;;4.80;;
6113;SDS011;3087;48.392;10.836;2023-03-12T10:58:37;6.27;;;4.67;;
6113;SDS011;3087;48.392;10.836;2023-03-12T11:01:10;6.77;;;5.47;;
6113;SDS011;3087;48.392;10.836;2023-03-12T11:03:40;6.37;;;5.00;;
6113;SDS011;3087;48.392;10.836;2023-03-12T11:06:08;6.33;;;5.30;;
6113;SDS011;3087;48.392;10.836;2023-03-12T11:08:43;6.03;;;5.43;;
6113;SDS011;3087;48.392;10.836;2023-03-12T11:11:31;5.57;;;5.07;;
6113;SDS011;3087;48.392;10.836;2023-03-12T11:14:16;5.97;;;5.37;;
6113;SDS011;3087;48.392;10.836;2023-03-12T11:16:46;6.67;;;5.70;;
6113;SDS011;3087;48.392;10.836;2023-03-12T11:19:14;7.50;;;6.40;;
6113;SDS011;3087;48.392;10.836;2023-03-12T11:21:56;5.90;;;5.20;;
6113;SDS011;3087;48.392;10.836;2023-03-12T11:24:23;6.43;;;5.77;;
6113;SDS011;3087;48.392;10.836;2023-03-12T11:26:58;6.27;;;5.67;;
6113;SDS011;3087;48.392;10.836;2023-03-12T11:32:05;5.87;;;5.37;;
6113;SDS011;3087;48.392;10.836;2023-03-12T11:34:42;8.07;;;6.37;;
6113;SDS011;3087;48.392;10.836;2023-03-12T11:37:13;7.00;;;6.30;;
6113;SDS011;3087;48.392;10.836;2023-03-12T12:12:23;7.70;;;5.35;;
6113;SDS011;3087;48.392;10.836;2023-03-12T12:15:27;6.05;;;5.45;;
6113;SDS011;3087;48.392;10.836;2023-03-12T12:18:01;5.47;;;4.90;;
6113;SDS011;3087;48.392;10.836;2023-03-12T12:20:46;5.40;;;4.90;;
6113;SDS011;3087;48.392;10.836;2023-03-12T12:26:19;5.50;;;4.90;;
6113;SDS011;3087;48.392;10.836;2023-03-12T12:39:57;6.13;;;4.60;;
6113;SDS011;3087;48.392;10.836;2023-03-12T12:42:32;5.70;;;4.43;;
6113;SDS011;3087;48.392;10.836;2023-03-12T12:45:03;6.95;;;5.28;;
6113;SDS011;3087;48.392;10.836;2023-03-12T12:47:36;6.53;;;4.90;;
6113;SDS011;3087;48.392;10.836;2023-03-12T12:50:12;6.25;;;4.32;;
6113;SDS011;3087;48.392;10.836;2023-03-12T12:52:51;6.28;;;4.63;;
6113;SDS011;3087;48.392;10.836;2023-03-12T12:55:39;6.20;;;5.05;;
6113;SDS011;3087;48.392;10.836;2023-03-12T12:58:17;8.02;;;4.70;;
6113;SDS011;3087;48.392;10.836;2023-03-12T13:00:54;6.60;;;4.90;;
6113;SDS011;3087;48.392;10.836;2023-03-12T13:03:23;5.55;;;5.03;;
6113;SDS011;3087;48.392;10.836;2023-03-12T13:13:38;5.78;;;4.50;;
6113;SDS011;3087;48.392;10.836;2023-03-12T13:16:28;5.00;;;4.50;;
6113;SDS011;3087;48.392;10.836;2023-03-12T13:22:11;6.05;;;4.60;;
6113;SDS011;3087;48.392;10.836;2023-03-12T13:29:49;6.47;;;4.65;;
6113;SDS011;3087;48.392;10.836;2023-03-12T13:34:58;5.32;;;4.28;;
6113;SDS011;3087;48.392;10.836;2023-03-12T13:37:56;5.72;;;5.13;;
6113;SDS011;3087;48.392;10.836;2023-03-12T13:45:32;5.03;;;3.60;;
6113;SDS011;3087;48.392;10.836;2023-03-12T13:48:11;6.07;;;4.75;;
6113;SDS011;3087;48.392;10.836;2023-03-12T13:50:40;4.50;;;4.07;;
6113;SDS011;3087;48.392;10.836;2023-03-12T13:53:18;5.85;;;4.15;;
6113;SDS011;3087;48.392;10.836;2023-03-12T13:56:03;5.95;;;3.60;;
6113;SDS011;3087;48.392;10.836;2023-03-12T13:58:37;5.90;;;3.55;;
6113;SDS011;3087;48.392;10.836;2023-03-12T14:01:25;5.07;;;3.35;;
6113;SDS011;3087;48.392;10.836;2023-03-12T14:04:05;5.47;;;2.83;;
6113;SDS011;3087;48.392;10.836;2023-03-12T14:12:08;2.80;;;2.13;;
6113;SDS011;3087;48.392;10.836;2023-03-12T14:14:50;4.10;;;2.50;;
6113;SDS011;3087;48.392;10.836;2023-03-12T14:17:30;4.90;;;3.00;;
6113;SDS011;3087;48.392;10.836;2023-03-12T14:19:59;6.30;;;3.05;;
6113;SDS011;3087;48.392;10.836;2023-03-12T14:22:33;4.88;;;3.10;;
6113;SDS011;3087;48.392;10.836;2023-03-12T14:25:12;4.68;;;2.88;;
6113;SDS011;3087;48.392;10.836;2023-03-12T14:27:43;5.18;;;3.58;;
6113;SDS011;3087;48.392;10.836;2023-03-12T14:30:11;4.10;;;2.92;;
6113;SDS011;3087;48.392;10.836;2023-03-12T14:32:38;3.42;;;2.35;;
6113;SDS011;3087;48.392;10.836;2023-03-12T14:35:15;3.75;;;2.70;;
6113;SDS011;3087;48.392;10.836;2023-03-12T14:37:42;4.75;;;2.53;;
6113;SDS011;3087;48.392;10.836;2023-03-12T14:43:24;3.50;;;2.90;;
6113;SDS011;3087;48.392;10.836;2023-03-12T14:45:55;4.70;;;3.60;;
6113;SDS011;3087;48.392;10.836;2023-03-12T14:48:23;5.07;;;3.15;;
6113;SDS011;3087;48.392;10.836;2023-03-12T14:50:53;4.18;;;2.72;;
6113;SDS011;3087;48.392;10.836;2023-03-12T14:53:33;4.50;;;3.20;;
6113;SDS011;3087;48.392;10.836;2023-03-12T14:58:47;6.15;;;3.30;;
6113;SDS011;3087;48.392;10.836;2023-03-12T15:01:23;5.20;;;3.40;;
6113;SDS011;3087;48.392;10.836;2023-03-12T15:03:56;4.63;;;3.33;;
6113;SDS011;3087;48.392;10.836;2023-03-12T15:06:42;3.30;;;3.00;;
6113;SDS011;3087;48.392;10.836;2023-03-12T15:09:15;5.75;;;3.42;;
6113;SDS011;3087;48.392;10.836;2023-03-12T15:11:53;4.07;;;3.00;;
6113;SDS011;3087;48.392;10.836;2023-03-12T15:14:22;5.63;;;3.22;;
6113;SDS011;3087;48.392;10.836;2023-03-12T15:16:50;6.50;;;2.97;;
6113;SDS011;3087;48.392;10.836;2023-03-12T15:19:17;4.22;;;2.50;;
6113;SDS011;3087;48.392;10.836;2023-03-12T15:21:47;3.47;;;3.15;;
6113;SDS011;3087;48.392;10.836;2023-03-12T15:24:13;3.50;;;2.63;;
6113;SDS011;3087;48.392;10.836;2023-03-12T15:26:40;4.13;;;2.50;;
6113;SDS011;3087;48.392;10.836;2023-03-12T15:29:27;4.07;;;2.80;;
6113;SDS011;3087;48.392;10.836;2023-03-12T15:31:55;3.15;;;2.50;;
6113;SDS011;3087;48.392;10.836;2023-03-12T15:34:29;3.08;;;2.30;;
6113;SDS011;3087;48.392;10.836;2023-03-12T15:36:56;3.60;;;2.55;;
6113;SDS011;3087;48.392;10.836;2023-03-12T15:39:24;4.07;;;2.35;;
6113;SDS011;3087;48.392;10.836;2023-03-12T15:42:09;3.80;;;2.22;;
6113;SDS011;3087;48.392;10.836;2023-03-12T15:44:44;3.00;;;2.30;;
6113;SDS011;3087;48.392;10.836;2023-03-12T15:47:12;2.80;;;2.17;;
6113;SDS011;3087;48.392;10.836;2023-03-12T15:49:41;4.22;;;2.45;;
6113;SDS011;3087;48.392;10.836;2023-03-12T15:55:05;3.20;;;2.05;;
6113;SDS011;3087;48.392;10.836;2023-03-12T15:57:45;2.80;;;2.22;;
6113;SDS011;3087;48.392;10.836;2023-03-12T16:02:38;3.92;;;2.70;;
6113;SDS011;3087;48.392;10.836;2023-03-12T16:05:14;2.42;;;2.00;;
6113;SDS011;3087;48.392;10.836;2023-03-12T16:07:41;2.65;;;2.42;;
6113;SDS011;3087;48.392;10.836;2023-03-12T16:10:09;3.20;;;2.38;;
6113;SDS011;3087;48.392;10.836;2023-03-12T16:12:38;2.50;;;2.30;;
6113;SDS011;3087;48.392;10.836;2023-03-12T16:15:05;2.47;;;2.25;;
6113;SDS011;3087;48.392;10.836;2023-03-12T16:17:31;3.20;;;2.33;;
6113;SDS011;3087;48.392;10.836;2023-03-12T16:19:56;4.57;;;2.20;;
6113;SDS011;3087;48.392;10.836;2023-03-12T16:22:22;3.85;;;2.15;;
6113;SDS011;3087;48.392;10.836;2023-03-12T16:24:48;2.42;;;2.22;;
6113;SDS011;3087;48.392;10.836;2023-03-12T16:27:14;2.10;;;1.90;;
6113;SDS011;3087;48.392;10.836;2023-03-12T16:29:41;3.28;;;2.40;;
6113;SDS011;3087;48.392;10.836;2023-03-12T16:32:14;4.15;;;2.10;;
6113;SDS011;3087;48.392;10.836;2023-03-12T16:34:41;2.33;;;2.13;;
6113;SDS011;3087;48.392;10.836;2023-03-12T16:37:09;3.08;;;2.35;;
6113;SDS011;3087;48.392;10.836;2023-03-12T16:39:36;2.72;;;2.38;;
6113;SDS011;3087;48.392;10.836;2023-03-12T16:42:02;2.67;;;2.13;;
6113;SDS011;3087;48.392;10.836;2023-03-12T16:44:34;2.83;;;2.40;;
6113;SDS011;3087;48.392;10.836;2023-03-12T16:47:00;2.88;;;2.30;;
6113;SDS011;3087;48.392;10.836;2023-03-12T16:49:26;2.78;;;2.40;;
6113;SDS011;3087;48.392;10.836;2023-03-12T16:51:51;2.92;;;2.40;;
6113;SDS011;3087;48.392;10.836;2023-03-12T16:54:17;3.35;;;2.45;;
6113;SDS011;3087;48.392;10.836;2023-03-12T16:56:46;3.13;;;2.60;;
6113;SDS011;3087;48.392;10.836;2023-03-12T16:59:21;3.15;;;2.17;;
6113;SDS011;3087;48.392;10.836;2023-03-12T17:01:49;4.05;;;2.42;;
6113;SDS011;3087;48.392;10.836;2023-03-12T17:04:15;3.88;;;2.63;;